Time;durP1;ratioP1;P1;durP2;ratioP2;P2;SDS_P1;SDS_P2;PMS_P1;PMS_P2;Temp;Humidity;BMP_temperature;BMP_pressure;BME280_temperature;BME280_humidity;BME280_pressure;Samples;Min_cycle;Max_cycle;Signal;HPM_P1;HPM_P2
2023/04/27 00:00:10;;;;;;;11.15;5.80;;;;;;;13.23;63.73;99960.67;1587233;87;21263;-59
2023/04/27 00:03:16;;;;;;;14.78;6.55;;;;;;;13.19;63.76;99955.23;1591997;89;21571;-59
2023/04/27 00:06:22;;;;;;;11.33;5.80;;;;;;;13.14;63.79;99952.28;1613382;89;21314;-59
2023/04/27 00:09:28;;;;;;;10.20;5.85;;;;;;;13.09;63.84;99947.91;1613249;89;21282;-58
2023/04/27 00:12:33;;;;;;;7.03;5.42;;;;;;;13.04;63.86;99946.29;1613318;88;21246;-58
2023/04/27 00:15:39;;;;;;;8.65;5.97;;;;;;;12.97;63.93;99948.10;1612763;89;21259;-58
2023/04/27 00:18:45;;;;;;;9.38;6.00;;;;;;;12.94;63.99;99952.63;1613348;89;21239;-59
2023/04/27 00:21:52;;;;;;;11.78;5.70;;;;;;;12.93;64.11;99950.94;1612461;89;21310;-60
2023/04/27 00:24:59;;;;;;;8.90;5.70;;;;;;;12.92;64.18;99949.23;1613374;89;21310;-59
2023/04/27 00:28:05;;;;;;;12.10;6.10;;;;;;;12.89;64.23;99952.38;1613670;89;21270;-59
2023/04/27 00:31:11;;;;;;;10.45;6.17;;;;;;;12.90;64.32;99956.84;1613158;89;21452;-58
2023/04/27 00:34:16;;;;;;;10.25;6.97;;;;;;;12.90;64.43;99958.73;1592259;89;21238;-58
2023/04/27 00:37:23;;;;;;;9.28;6.62;;;;;;;12.90;64.48;99955.47;1613313;89;21302;-58
2023/04/27 00:40:28;;;;;;;12.60;6.60;;;;;;;12.90;64.52;99961.48;1613316;89;21339;-58
2023/04/27 00:43:33;;;;;;;10.40;5.78;;;;;;;12.89;64.59;99954.30;1613295;89;21350;-59
2023/04/27 00:46:38;;;;;;;9.38;6.22;;;;;;;12.89;64.65;99953.75;1613286;89;21247;-59
2023/04/27 00:49:44;;;;;;;10.58;6.42;;;;;;;12.88;64.76;99961.69;1613289;89;21235;-58
2023/04/27 00:52:51;;;;;;;11.90;6.37;;;;;;;12.89;64.81;99960.62;1612468;89;21791;-59
2023/04/27 00:55:57;;;;;;;12.25;6.92;;;;;;;12.88;64.84;99960.31;1613280;89;21323;-58
2023/04/27 00:59:03;;;;;;;11.45;6.15;;;;;;;12.88;64.90;99958.08;1613338;89;21384;-59
2023/04/27 01:02:09;;;;;;;8.85;6.12;;;;;;;12.88;64.97;99955.33;1611159;86;21271;-58
2023/04/27 01:05:16;;;;;;;8.83;6.37;;;;;;;12.88;65.04;99957.56;1606365;89;21223;-58
2023/04/27 01:08:21;;;;;;;12.30;6.33;;;;;;;12.89;65.12;99956.50;1606357;89;21327;-58
2023/04/27 01:11:26;;;;;;;9.58;6.37;;;;;;;12.88;65.06;99954.81;1606323;89;21319;-58
2023/04/27 01:14:31;;;;;;;13.62;5.85;;;;;;;12.85;65.04;99951.10;1606352;89;21251;-59
2023/04/27 01:17:36;;;;;;;10.58;6.20;;;;;;;12.85;65.15;99946.98;1606330;89;21271;-58
2023/04/27 01:20:43;;;;;;;9.35;6.08;;;;;;;12.85;65.22;99955.73;1584801;90;21241;-58
2023/04/27 01:23:50;;;;;;;9.75;5.50;;;;;;;12.87;65.28;99942.66;1584224;90;21395;-59
2023/04/27 01:26:56;;;;;;;9.25;5.50;;;;;;;12.84;65.28;99949.41;1584193;90;21256;-58
2023/04/27 01:30:02;;;;;;;8.70;5.62;;;;;;;12.84;65.39;99948.04;1584198;90;21249;-59
2023/04/27 01:33:08;;;;;;;11.15;6.37;;;;;;;12.84;65.41;99946.66;1577505;91;21889;-57
2023/04/27 01:36:14;;;;;;;12.70;5.72;;;;;;;12.82;65.45;99943.27;1590760;90;21220;-57
2023/04/27 01:39:20;;;;;;;9.43;6.10;;;;;;;12.80;65.47;99940.37;1577414;91;21772;-58
2023/04/27 01:42:25;;;;;;;10.03;5.70;;;;;;;12.76;65.53;99935.83;1577017;91;21259;-58
2023/04/27 01:45:32;;;;;;;7.62;5.60;;;;;;;12.73;65.58;99929.89;1597252;90;21229;-59
2023/04/27 01:48:37;;;;;;;14.47;5.35;;;;;;;12.70;65.60;99933.86;1580046;90;21405;-58
2023/04/27 01:51:42;;;;;;;10.40;6.30;;;;;;;12.70;65.69;99936.61;1577611;91;21283;-58
2023/04/27 01:54:47;;;;;;;12.40;6.45;;;;;;;12.70;65.75;99937.16;1590475;90;21240;-58
2023/04/27 01:57:54;;;;;;;13.88;6.40;;;;;;;12.70;65.79;99931.12;1577418;90;21322;-58
2023/04/27 02:01:00;;;;;;;9.05;6.15;;;;;;;12.71;65.82;99934.72;1602895;88;21314;-58
2023/04/27 02:04:06;;;;;;;9.75;5.40;;;;;;;12.66;65.75;99931.20;1598726;89;21319;-58
2023/04/27 02:07:12;;;;;;;9.98;6.30;;;;;;;12.62;65.73;99926.32;1598334;90;21560;-58
2023/04/27 02:10:14;;;;;;;8.00;5.60;;;;;;;12.59;65.77;99941.28;1597845;89;21748;-59
2023/04/27 02:13:20;;;;;;;10.10;5.67;;;;;;;12.59;65.89;99942.65;1597850;89;21792;-59
2023/04/27 02:16:26;;;;;;;9.43;5.33;;;;;;;12.59;65.94;99935.79;1597983;88;21303;-58
2023/04/27 02:19:25;;;;;;;11.65;5.95;;;;;;;12.59;66.02;99938.53;1598085;89;21227;-58
2023/04/27 02:22:32;;;;;;;12.13;6.10;;;;;;;12.54;65.93;99941.57;1598040;89;21263;-59
2023/04/27 02:25:37;;;;;;;8.43;5.67;;;;;;;12.53;66.02;99946.20;1598138;89;21299;-60
2023/04/27 02:28:44;;;;;;;7.62;5.30;;;;;;;12.50;66.08;99942.48;1597886;88;21279;-59
2023/04/27 02:31:50;;;;;;;8.20;5.83;;;;;;;12.48;66.08;99937.70;1597259;89;21236;-58
2023/04/27 02:34:57;;;;;;;11.38;6.78;;;;;;;12.45;66.04;99931.76;1597344;90;21283;-59
2023/04/27 02:38:03;;;;;;;10.65;7.15;;;;;;;12.42;66.11;99928.04;1597998;90;21315;-59
2023/04/27 02:41:08;;;;;;;8.63;6.22;;;;;;;12.37;66.19;99920.41;1598006;90;21280;-60
2023/04/27 02:44:15;;;;;;;12.15;6.45;;;;;;;12.33;66.27;99925.98;1598079;88;21580;-60
2023/04/27 02:47:24;;;;;;;8.78;5.85;;;;;;;12.33;66.39;99925.98;1598053;88;21263;-59
2023/04/27 02:50:30;;;;;;;8.38;5.83;;;;;;;12.34;66.43;99919.95;1598076;90;21243;-60
2023/04/27 02:53:35;;;;;;;11.85;6.17;;;;;;;12.31;66.37;99915.72;1597717;88;21359;-59
2023/04/27 02:56:40;;;;;;;9.75;6.10;;;;;;;12.28;66.39;99916.11;1598000;88;21279;-58
2023/04/27 02:59:46;;;;;;;10.20;6.08;;;;;;;12.29;66.49;99914.23;1597959;89;21315;-58
2023/04/27 03:02:52;;;;;;;12.35;6.17;;;;;;;12.29;66.62;99910.94;1599248;88;21485;-59
2023/04/27 03:05:58;;;;;;;12.05;5.97;;;;;;;12.34;66.72;99915.31;1597509;89;21368;-58
2023/04/27 03:09:04;;;;;;;10.08;6.30;;;;;;;12.38;66.80;99907.54;1611066;88;21259;-59
2023/04/27 03:12:12;;;;;;;12.15;6.25;;;;;;;12.41;66.82;99912.12;1611331;88;21255;-58
2023/04/27 03:15:18;;;;;;;10.93;6.47;;;;;;;12.43;66.80;99901.77;1598184;89;21251;-58
2023/04/27 03:18:25;;;;;;;14.13;6.28;;;;;;;12.46;66.75;99901.39;1598094;88;21263;-58
2023/04/27 03:21:31;;;;;;;17.32;12.15;;;;;;;12.48;66.79;99903.94;1598284;89;21311;-58
2023/04/27 03:24:39;;;;;;;13.28;7.45;;;;;;;12.50;66.78;99904.05;1597804;88;21252;-58
2023/04/27 03:27:46;;;;;;;10.40;6.60;;;;;;;12.54;66.85;99905.33;1597938;88;21580;-58
2023/04/27 03:30:52;;;;;;;10.30;5.37;;;;;;;12.57;66.81;99897.23;1596678;89;21280;-59
2023/04/27 03:33:58;;;;;;;11.55;5.37;;;;;;;12.58;66.78;99886.05;1611031;89;21235;-58
2023/04/27 03:37:05;;;;;;;12.10;6.15;;;;;;;12.63;66.87;99897.80;1597889;89;21247;-58
2023/04/27 03:40:11;;;;;;;6.78;4.85;;;;;;;12.68;66.98;99909.89;1597515;89;21348;-58
2023/04/27 03:43:17;;;;;;;10.00;5.45;;;;;;;12.76;67.05;99922.09;1611259;88;21835;-58
2023/04/27 03:46:24;;;;;;;8.58;5.15;;;;;;;12.83;67.06;99927.09;1597866;89;21284;-58
2023/04/27 03:49:30;;;;;;;9.35;5.00;;;;;;;12.90;67.10;99930.75;1598791;88;21317;-58
2023/04/27 03:52:36;;;;;;;10.25;5.33;;;;;;;12.98;67.17;99935.22;1598205;89;21343;-58
2023/04/27 03:55:48;;;;;;;9.98;5.47;;;;;;;13.04;67.20;99925.68;1596693;89;21236;-59
2023/04/27 03:58:54;;;;;;;9.45;5.35;;;;;;;13.11;67.20;99937.54;1601691;89;21342;-59
2023/04/27 04:02:05;;;;;;;10.30;5.05;;;;;;;13.18;67.18;99942.56;1598082;88;21235;-60
2023/04/27 04:05:13;;;;;;;9.38;5.40;;;;;;;13.26;67.16;99949.27;1598083;89;21228;-58
2023/04/27 04:08:20;;;;;;;9.90;5.03;;;;;;;13.32;67.11;99949.81;1612325;89;21302;-60
2023/04/27 04:11:26;;;;;;;11.12;4.85;;;;;;;13.39;67.10;99952.61;1612367;89;21395;-59
2023/04/27 04:14:33;;;;;;;8.05;4.80;;;;;;;13.49;67.12;99957.20;1611444;89;21608;-60
2023/04/27 04:17:40;;;;;;;8.25;4.75;;;;;;;13.61;67.13;99965.70;1612705;87;21274;-59
2023/04/27 04:20:46;;;;;;;7.20;5.17;;;;;;;13.72;67.12;99970.61;1612240;87;21411;-59
2023/04/27 04:23:52;;;;;;;9.65;4.60;;;;;;;13.83;67.08;99981.88;1613174;87;21389;-59
2023/04/27 04:27:02;;;;;;;6.35;4.72;;;;;;;13.94;67.02;99979.07;1612716;87;21355;-60
2023/04/27 04:30:07;;;;;;;6.53;4.58;;;;;;;14.03;66.90;99977.30;1611971;87;21302;-60
2023/04/27 04:33:12;;;;;;;8.80;4.25;;;;;;;14.10;66.86;99975.39;1611969;87;21322;-58
2023/04/27 04:36:18;;;;;;;8.43;4.90;;;;;;;14.17;66.85;99969.91;1611161;89;21348;-59
2023/04/27 04:39:26;;;;;;;9.88;4.42;;;;;;;14.25;66.85;99972.50;1612847;89;21744;-59
2023/04/27 04:42:32;;;;;;;21.65;5.67;;;;;;;14.35;66.83;99977.08;1625979;87;21265;-59
2023/04/27 04:45:38;;;;;;;8.20;4.55;;;;;;;14.42;66.78;99969.13;1602825;89;21248;-59
2023/04/27 04:48:37;;;;;;;12.30;4.33;;;;;;;14.47;66.70;99972.63;1639097;87;21812;-60
2023/04/27 04:51:31;;;;;;;11.38;4.08;;;;;;;14.54;66.71;99970.18;1637162;87;21326;-59
2023/04/27 04:54:36;;;;;;;16.93;8.28;;;;;;;14.60;66.69;99964.38;1636234;87;21780;-58
2023/04/27 04:57:42;;;;;;;6.75;4.33;;;;;;;14.70;66.71;99977.17;1635833;87;21259;-59
2023/04/27 05:00:47;;;;;;;16.48;5.00;;;;;;;14.78;66.66;99973.69;1637171;87;21227;-59
2023/04/27 05:03:53;;;;;;;11.40;4.25;;;;;;;14.82;66.53;99970.84;1598810;89;22123;-58
2023/04/27 05:07:00;;;;;;;9.88;4.40;;;;;;;14.87;66.57;99959.99;1618613;86;21263;-60
2023/04/27 05:10:07;;;;;;;7.83;3.75;;;;;;;14.91;66.54;99935.61;1631722;86;21814;-60
2023/04/27 05:13:13;;;;;;;12.33;4.20;;;;;;;14.94;66.53;99937.94;1631269;88;21658;-60
2023/04/27 05:16:19;;;;;;;10.40;4.75;;;;;;;14.98;66.59;99950.25;1631084;88;21309;-59
2023/04/27 05:19:25;;;;;;;6.28;4.47;;;;;;;15.07;66.67;99942.06;1634329;86;21224;-60
2023/04/27 05:22:32;;;;;;;7.00;4.03;;;;;;;15.13;66.54;99951.39;1633380;88;21271;-60
2023/04/27 05:25:42;;;;;;;8.43;4.08;;;;;;;15.17;66.42;99959.01;1633335;87;21219;-60
2023/04/27 05:28:49;;;;;;;6.95;4.08;;;;;;;15.26;66.48;99967.36;1631264;86;21279;-61
2023/04/27 05:31:55;;;;;;;8.95;4.12;;;;;;;15.37;66.39;99955.66;1607486;89;21768;-60
2023/04/27 05:35:03;;;;;;;7.03;3.87;;;;;;;15.47;66.32;99950.57;1607806;89;21239;-60
2023/04/27 05:38:09;;;;;;;8.73;4.05;;;;;;;15.58;66.25;99951.80;1611261;87;21270;-60
2023/04/27 05:41:15;;;;;;;7.90;4.42;;;;;;;15.64;66.22;99938.49;1613979;88;21313;-60
2023/04/27 05:44:24;;;;;;;6.53;4.15;;;;;;;15.75;66.21;99937.80;1632105;87;21607;-60
2023/04/27 05:47:29;;;;;;;7.80;4.42;;;;;;;15.85;66.15;99923.86;1629952;86;21252;-60
2023/04/27 05:50:36;;;;;;;7.53;4.47;;;;;;;15.88;65.97;99923.41;1613479;88;21272;-60
2023/04/27 05:53:42;;;;;;;5.97;4.30;;;;;;;15.90;65.98;99922.64;1633350;86;21637;-60
2023/04/27 05:56:47;;;;;;;9.55;4.22;;;;;;;15.97;65.99;99917.08;1633226;88;21835;-59
2023/04/27 05:59:52;;;;;;;8.98;4.15;;;;;;;16.00;65.89;99911.97;1633519;88;21295;-58
2023/04/27 06:02:59;;;;;;;7.25;4.15;;;;;;;16.02;65.83;99922.78;1633130;88;21622;-58
2023/04/27 06:06:07;;;;;;;12.00;4.10;;;;;;;16.06;65.87;99922.12;1633669;88;21658;-57
2023/04/27 06:09:13;;;;;;;6.78;4.50;;;;;;;16.12;65.80;99919.88;1602496;85;21267;-57
2023/04/27 06:12:18;;;;;;;9.28;4.10;;;;;;;16.18;65.77;99926.41;1591911;89;21280;-57
2023/04/27 06:15:25;;;;;;;5.37;4.05;;;;;;;16.21;65.61;99929.57;1591371;90;21515;-57
2023/04/27 06:18:32;;;;;;;7.25;3.95;;;;;;;16.23;65.58;99927.44;1595097;88;21308;-57
2023/04/27 06:21:42;;;;;;;8.68;4.70;;;;;;;16.24;65.55;99922.22;1611898;89;21278;-58
2023/04/27 06:24:48;;;;;;;6.30;4.33;;;;;;;16.27;65.54;99905.72;1644367;87;21273;-58
2023/04/27 06:27:56;;;;;;;8.08;4.47;;;;;;;16.30;65.50;99902.50;1599483;89;21664;-59
2023/04/27 06:31:02;;;;;;;8.63;4.15;;;;;;;16.29;65.43;99912.73;1613672;88;21760;-61
2023/04/27 06:34:07;;;;;;;7.67;4.40;;;;;;;16.35;65.49;99919.26;1645776;86;21327;-60
2023/04/27 06:37:17;;;;;;;10.85;4.33;;;;;;;16.36;65.33;99930.08;1600548;87;21710;-60
2023/04/27 06:40:24;;;;;;;6.83;4.20;;;;;;;16.40;65.43;99963.12;1586580;90;21363;-59
2023/04/27 06:43:31;;;;;;;7.78;4.53;;;;;;;16.40;65.30;100003.18;1576140;90;21352;-59
2023/04/27 06:46:38;;;;;;;12.88;5.20;;;;;;;16.25;65.10;100013.67;1591953;88;21299;-59
2023/04/27 06:49:44;;;;;;;8.15;4.60;;;;;;;16.08;65.11;99994.55;1625200;86;21233;-58
2023/04/27 06:52:52;;;;;;;13.55;5.30;;;;;;;15.99;65.23;99997.78;1624460;88;21735;-59
2023/04/27 06:55:57;;;;;;;11.88;5.37;;;;;;;15.94;65.29;100013.63;1624242;88;21302;-60
2023/04/27 06:59:04;;;;;;;12.13;4.83;;;;;;;15.90;65.31;100019.26;1625037;86;21220;-60
2023/04/27 07:02:10;;;;;;;7.80;4.50;;;;;;;15.86;65.38;100011.64;1616007;88;21813;-58
2023/04/27 07:05:16;;;;;;;9.75;4.92;;;;;;;15.82;65.36;100009.87;1615595;88;21249;-59
2023/04/27 07:08:24;;;;;;;6.85;4.60;;;;;;;15.75;65.40;99998.00;1607166;88;21252;-58
2023/04/27 07:11:30;;;;;;;11.08;5.45;;;;;;;15.67;65.36;99987.20;1635221;87;21230;-59
2023/04/27 07:14:36;;;;;;;7.40;5.53;;;;;;;15.63;65.41;99980.97;1635463;87;21279;-58
2023/04/27 07:17:41;;;;;;;8.73;5.10;;;;;;;15.57;65.43;99968.88;1635482;87;21380;-58
2023/04/27 07:20:49;;;;;;;9.00;6.65;;;;;;;15.54;65.46;99952.76;1609376;89;21343;-57
2023/04/27 07:23:57;;;;;;;8.03;6.47;;;;;;;15.53;65.49;99928.14;1608871;89;21308;-59
2023/04/27 07:27:02;;;;;;;7.75;5.10;;;;;;;15.54;65.54;99927.10;1632210;87;21251;-59
2023/04/27 07:30:08;;;;;;;8.73;5.65;;;;;;;15.54;65.54;99909.17;1613179;86;21255;-57
2023/04/27 07:33:14;;;;;;;8.83;6.85;;;;;;;15.56;65.56;99918.91;1605824;87;21821;-57
2023/04/27 07:36:21;;;;;;;8.65;6.85;;;;;;;15.60;65.63;99920.14;1611455;89;21780;-58
2023/04/27 07:39:27;;;;;;;6.95;5.15;;;;;;;15.62;65.66;99913.88;1613099;85;21235;-57
2023/04/27 07:42:34;;;;;;;9.15;5.53;;;;;;;15.60;65.65;99921.52;1610788;89;21242;-57
2023/04/27 07:45:41;;;;;;;8.90;5.33;;;;;;;15.57;65.64;99933.00;1610132;88;21235;-57
2023/04/27 07:48:49;;;;;;;10.65;5.60;;;;;;;15.55;65.66;99946.72;1603631;88;21695;-57
2023/04/27 07:51:56;;;;;;;10.40;6.10;;;;;;;15.53;65.64;99950.22;1611271;88;21243;-58
2023/04/27 07:55:01;;;;;;;9.75;5.67;;;;;;;15.49;65.56;99959.45;1575953;89;21348;-57
2023/04/27 07:58:11;;;;;;;7.95;5.72;;;;;;;15.43;65.59;99954.81;1604209;88;21266;-58
2023/04/27 08:01:16;;;;;;;8.85;6.70;;;;;;;15.49;65.93;99967.73;1601389;88;21789;-57
2023/04/27 08:04:23;;;;;;;9.95;6.47;;;;;;;15.68;66.24;99955.77;1603764;89;21784;-57
2023/04/27 08:07:30;;;;;;;8.90;6.75;;;;;;;15.68;65.99;99953.02;1607779;87;21232;-57
2023/04/27 08:10:38;;;;;;;7.90;5.80;;;;;;;15.52;65.86;99945.25;1605832;87;21904;-57
2023/04/27 08:13:44;;;;;;;7.87;6.17;;;;;;;15.48;66.01;99943.98;1600092;89;21244;-57
2023/04/27 08:16:50;;;;;;;13.05;6.97;;;;;;;15.44;66.07;99936.36;1597811;89;21900;-57
2023/04/27 08:19:57;;;;;;;11.10;6.67;;;;;;;15.39;66.10;99932.88;1619717;88;21676;-57
2023/04/27 08:23:04;;;;;;;8.80;5.80;;;;;;;15.35;66.22;99929.38;1617976;88;21356;-57
2023/04/27 08:26:13;;;;;;;9.83;6.42;;;;;;;15.32;66.27;99929.25;1616768;88;21304;-57
2023/04/27 08:29:18;;;;;;;9.25;6.78;;;;;;;15.25;66.37;99916.04;1619345;87;21513;-58
2023/04/27 08:32:28;;;;;;;10.23;6.95;;;;;;;15.25;66.62;99911.05;1619221;87;21315;-56
2023/04/27 08:35:35;;;;;;;9.30;6.42;;;;;;;15.31;66.74;99909.64;1618596;87;21234;-59
2023/04/27 08:38:42;;;;;;;8.68;6.25;;;;;;;15.37;66.90;99904.63;1606928;88;21240;-59
2023/04/27 08:41:52;;;;;;;10.03;6.72;;;;;;;15.51;66.93;99895.27;1597948;89;21351;-58
2023/04/27 08:44:58;;;;;;;11.83;5.87;;;;;;;15.68;67.08;99885.40;1609097;89;21288;-58
2023/04/27 08:48:02;;;;;;;9.40;7.08;;;;;;;15.93;67.22;99873.91;1622265;86;21659;-58
2023/04/27 08:51:09;;;;;;;9.28;6.58;;;;;;;16.21;67.26;99872.95;1618125;88;21216;-57
2023/04/27 08:54:18;;;;;;;9.53;6.03;;;;;;;16.57;67.34;99860.36;1595867;88;21340;-58
2023/04/27 08:57:23;;;;;;;7.53;5.35;;;;;;;16.70;66.91;99852.77;1598578;89;21263;-57
2023/04/27 09:00:33;;;;;;;5.65;4.50;;;;;;;16.82;66.92;99854.25;1594759;88;21228;-57
2023/04/27 09:03:45;;;;;;;6.25;4.65;;;;;;;16.99;66.92;99852.56;1591469;88;21360;-57
2023/04/27 09:06:50;;;;;;;7.58;4.15;;;;;;;17.09;66.92;99846.82;1598013;89;21267;-56
2023/04/27 09:09:56;;;;;;;6.20;4.35;;;;;;;17.19;66.98;99843.48;1607056;88;21249;-57
2023/04/27 09:13:05;;;;;;;5.17;3.35;;;;;;;17.28;66.94;99840.73;1621313;86;21222;-58
2023/04/27 09:16:13;;;;;;;8.55;3.20;;;;;;;17.28;66.76;99845.70;1574205;89;21774;-57
2023/04/27 09:19:23;;;;;;;4.17;3.00;;;;;;;17.31;66.72;99844.41;1587673;89;21762;-59
2023/04/27 09:22:28;;;;;;;10.45;3.70;;;;;;;17.43;66.74;99847.55;1627501;88;21247;-57
2023/04/27 09:25:37;;;;;;;7.28;4.20;;;;;;;17.56;66.66;99856.23;1627520;88;21224;-57
2023/04/27 09:28:47;;;;;;;7.30;3.12;;;;;;;17.53;66.63;99843.73;1572317;89;21251;-57
2023/04/27 09:31:55;;;;;;;6.35;2.55;;;;;;;17.52;66.62;99841.20;1621808;87;21326;-57
2023/04/27 09:35:02;;;;;;;7.70;2.85;;;;;;;17.64;66.81;99829.09;1636787;87;21267;-57
2023/04/27 09:38:08;;;;;;;4.85;2.90;;;;;;;17.83;66.80;99831.25;1636720;87;21598;-57
2023/04/27 09:41:16;;;;;;;4.65;3.12;;;;;;;17.97;66.68;99827.20;1640863;86;21296;-57
2023/04/27 09:44:23;;;;;;;4.70;2.85;;;;;;;18.16;66.66;99827.95;1645787;87;21549;-57
2023/04/27 09:47:29;;;;;;;4.62;3.35;;;;;;;18.36;66.53;99825.14;1626716;88;21316;-57
2023/04/27 09:50:36;;;;;;;6.05;3.20;;;;;;;18.55;66.51;99818.44;1627135;88;21288;-57
2023/04/27 09:53:57;;;;;;;3.90;3.27;;;;;;;18.64;66.29;99822.56;1614049;88;21757;-57
2023/04/27 09:57:14;;;;;;;5.12;3.08;;;;;;;18.60;66.15;99822.73;1635370;87;21862;-56
2023/04/27 10:00:53;;;;;;;4.47;3.33;;;;;;;18.68;66.31;99818.77;1627579;87;21319;-59
2023/04/27 10:04:24;;;;;;;4.25;2.62;;;;;;;18.65;66.09;99815.92;1624754;87;21770;-59
2023/04/27 10:07:32;;;;;;;5.25;2.87;;;;;;;18.66;66.16;99812.05;1635496;87;21273;-60
2023/04/27 10:10:42;;;;;;;5.58;3.17;;;;;;;18.91;66.48;99807.11;1635880;87;21776;-60
2023/04/27 10:13:59;;;;;;;4.97;3.05;;;;;;;19.39;66.75;99810.09;1627032;86;21408;-59
2023/04/27 10:17:06;;;;;;;6.62;3.17;;;;;;;19.76;66.30;99806.66;1603064;89;21595;-58
2023/04/27 10:20:15;;;;;;;4.00;2.65;;;;;;;19.89;65.59;99803.58;1601916;89;21813;-58
2023/04/27 10:23:33;;;;;;;4.55;2.75;;;;;;;19.90;65.27;99807.20;1604356;89;21259;-58
2023/04/27 10:26:38;;;;;;;3.33;2.75;;;;;;;20.07;65.20;99804.75;1604296;89;21808;-64
2023/04/27 10:29:48;;;;;;;5.92;3.50;;;;;;;20.33;65.45;99806.03;1628918;88;21235;-59
2023/04/27 10:33:06;;;;;;;4.47;3.00;;;;;;;20.61;65.30;99810.13;1608968;88;21276;-58
2023/04/27 10:36:13;;;;;;;5.12;2.98;;;;;;;20.80;65.06;99798.44;1628415;87;21295;-59
2023/04/27 10:39:27;;;;;;;4.87;2.87;;;;;;;20.96;64.80;99799.55;1586089;88;21396;-58
2023/04/27 10:42:34;;;;;;;5.08;2.80;;;;;;;20.87;64.36;99798.25;1607531;87;21798;-58
2023/04/27 10:45:41;;;;;;;6.35;2.95;;;;;;;20.69;63.88;99803.55;1625891;87;21226;-58
2023/04/27 10:48:48;;;;;;;3.75;3.00;;;;;;;20.43;63.78;99818.72;1627001;86;21228;-59
2023/04/27 10:51:58;;;;;;;6.78;3.15;;;;;;;20.25;63.83;99815.64;1615373;87;21236;-59
2023/04/27 10:55:05;;;;;;;8.05;3.02;;;;;;;20.30;64.04;99820.44;1613579;87;21204;-59
2023/04/27 10:58:11;;;;;;;4.60;3.10;;;;;;;20.38;64.20;99826.97;1614306;86;21268;-56
2023/04/27 11:01:18;;;;;;;5.70;3.00;;;;;;;20.39;63.87;99823.11;1608147;88;21245;-59
2023/04/27 11:04:30;;;;;;;5.37;2.80;;;;;;;20.33;63.61;99821.32;1608537;88;21287;-60
2023/04/27 11:07:53;;;;;;;7.47;3.00;;;;;;;20.31;63.57;99817.41;1627730;86;21228;-60
2023/04/27 11:11:00;;;;;;;3.90;2.90;;;;;;;20.40;63.71;99819.23;1641192;86;21248;-58
2023/04/27 11:14:08;;;;;;;6.28;2.50;;;;;;;20.48;63.49;99819.66;1604735;82;21599;-58
2023/04/27 11:17:15;;;;;;;7.05;2.80;;;;;;;20.64;63.51;99826.30;1605112;88;21240;-59
2023/04/27 11:20:24;;;;;;;6.30;2.58;;;;;;;20.77;63.34;99822.59;1615664;87;21233;-58
2023/04/27 11:23:40;;;;;;;9.13;3.23;;;;;;;20.90;63.31;99811.65;1633484;86;21260;-59
2023/04/27 11:26:46;;;;;;;6.83;2.72;;;;;;;21.01;62.97;99807.12;1624515;86;21853;-59
2023/04/27 11:29:53;;;;;;;4.08;2.50;;;;;;;21.11;62.77;99812.80;1636374;86;21346;-59
2023/04/27 11:33:00;;;;;;;3.67;2.62;;;;;;;21.29;62.71;99802.22;1607372;88;21736;-60
2023/04/27 11:36:08;;;;;;;4.33;2.60;;;;;;;21.38;62.19;99800.64;1623739;88;21222;-56
2023/04/27 11:39:14;;;;;;;5.03;2.77;;;;;;;21.41;62.14;99802.91;1626213;88;21223;-57
2023/04/27 11:42:29;;;;;;;3.92;2.58;;;;;;;21.56;61.99;99800.32;1622506;87;21276;-57
2023/04/27 11:45:37;;;;;;;5.42;2.52;;;;;;;21.64;61.50;99801.25;1620995;87;21844;-56
2023/04/27 11:48:44;;;;;;;3.37;2.15;;;;;;;21.77;61.39;99795.27;1619399;86;21241;-56
2023/04/27 11:51:52;;;;;;;3.70;2.15;;;;;;;22.06;61.51;99786.92;1622694;87;21256;-56
2023/04/27 11:54:59;;;;;;;5.37;2.80;;;;;;;22.54;61.63;99783.72;1603749;87;22060;-56
2023/04/27 11:58:06;;;;;;;5.90;2.40;;;;;;;22.73;61.08;99776.05;1610053;88;21848;-57
2023/04/27 12:01:17;;;;;;;3.42;2.45;;;;;;;22.79;60.62;99764.34;1614927;88;21330;-55
2023/04/27 12:04:28;;;;;;;4.47;2.75;;;;;;;22.70;60.10;99761.25;1629005;88;21227;-56
2023/04/27 12:07:35;;;;;;;4.80;2.85;;;;;;;22.56;60.00;99763.38;1623397;88;21216;-56
2023/04/27 12:10:40;;;;;;;5.75;3.08;;;;;;;22.60;60.00;99761.72;1602472;87;21242;-56
2023/04/27 12:13:47;;;;;;;5.53;2.80;;;;;;;22.58;59.85;99756.98;1602272;87;21599;-56
2023/04/27 12:16:54;;;;;;;7.25;3.37;;;;;;;22.54;59.69;99748.84;1624876;87;21328;-56
2023/04/27 12:20:00;;;;;;;9.25;3.08;;;;;;;22.54;59.47;99754.42;1604462;88;21548;-57
2023/04/27 12:23:08;;;;;;;3.80;3.05;;;;;;;22.54;59.45;99741.87;1600111;88;21289;-55
2023/04/27 12:26:13;;;;;;;4.80;2.67;;;;;;;22.75;59.56;99736.16;1614921;87;21622;-56
2023/04/27 12:29:20;;;;;;;10.13;4.10;;;;;;;22.99;59.51;99733.19;1598965;88;21329;-56
2023/04/27 12:32:26;;;;;;;4.67;3.22;;;;;;;23.15;59.27;99725.74;1609573;86;21328;-56
2023/04/27 12:35:34;;;;;;;4.17;3.20;;;;;;;23.19;58.93;99728.26;1595510;88;21292;-55
2023/04/27 12:38:40;;;;;;;12.37;4.25;;;;;;;23.15;58.57;99718.77;1615955;88;21312;-57
2023/04/27 12:41:49;;;;;;;7.37;4.78;;;;;;;23.17;58.48;99715.11;1598738;88;21276;-56
2023/04/27 12:44:57;;;;;;;5.03;3.52;;;;;;;23.08;58.23;99709.23;1629104;87;21239;-56
2023/04/27 12:48:03;;;;;;;10.00;3.12;;;;;;;22.95;58.01;99716.72;1607943;88;21349;-56
2023/04/27 12:51:11;;;;;;;6.35;3.05;;;;;;;22.91;57.99;99711.95;1601402;86;21249;-56
2023/04/27 12:54:19;;;;;;;7.72;3.42;;;;;;;22.98;58.03;99711.98;1626762;87;21239;-56
2023/04/27 12:57:25;;;;;;;7.42;3.50;;;;;;;22.88;57.76;99716.11;1614405;88;21777;-56
2023/04/27 13:00:33;;;;;;;9.20;3.87;;;;;;;22.82;57.65;99731.16;1626700;88;21273;-57
2023/04/27 13:03:37;;;;;;;6.95;3.30;;;;;;;22.84;57.54;99731.73;1598426;86;21661;-56
2023/04/27 13:06:45;;;;;;;3.75;2.83;;;;;;;22.88;57.40;99738.44;1560310;88;21234;-60
2023/04/27 13:09:52;;;;;;;7.15;3.10;;;;;;;22.89;57.24;99743.48;1600341;88;21295;-57
2023/04/27 13:12:58;;;;;;;4.83;3.10;;;;;;;22.74;56.95;99740.63;1614893;88;21280;-57
2023/04/27 13:16:04;;;;;;;12.37;3.42;;;;;;;22.50;56.84;99743.50;1612365;87;22142;-56
2023/04/27 13:19:10;;;;;;;8.40;3.30;;;;;;;22.29;56.66;99743.91;1610260;86;21614;-56
2023/04/27 13:22:16;;;;;;;9.98;3.60;;;;;;;22.09;56.59;99745.97;1603765;88;21850;-56
2023/04/27 13:25:22;;;;;;;6.05;3.60;;;;;;;21.83;56.54;99754.38;1612227;88;21228;-56
2023/04/27 13:28:27;;;;;;;5.75;3.58;;;;;;;21.70;56.65;99757.00;1618466;87;21298;-57
2023/04/27 13:31:32;;;;;;;11.38;4.00;;;;;;;21.52;56.62;99757.90;1596632;88;21940;-56
2023/04/27 13:34:56;;;;;;;5.47;3.27;;;;;;;21.41;56.74;99766.70;1611279;88;21532;-56
2023/04/27 13:38:02;;;;;;;8.18;3.58;;;;;;;21.27;56.69;99764.03;1615473;87;21252;-56
2023/04/27 13:41:08;;;;;;;5.78;3.52;;;;;;;21.12;56.64;99774.97;1614486;87;21247;-56
2023/04/27 13:44:14;;;;;;;3.90;3.50;;;;;;;20.95;56.66;99774.73;1590163;88;21291;-56
2023/04/27 13:47:21;;;;;;;6.65;3.75;;;;;;;20.81;56.71;99777.03;1616203;87;21260;-56
2023/04/27 13:50:28;;;;;;;5.78;4.05;;;;;;;20.61;56.79;99780.34;1636936;86;21319;-57
2023/04/27 13:53:34;;;;;;;5.65;3.95;;;;;;;20.47;56.93;99767.89;1646908;87;21308;-54
2023/04/27 13:56:41;;;;;;;5.75;4.05;;;;;;;20.46;57.07;99768.16;1634915;86;21248;-55
2023/04/27 13:59:50;;;;;;;7.08;4.40;;;;;;;20.48;57.09;99759.87;1589515;90;21236;-57
2023/04/27 14:02:57;;;;;;;12.03;4.37;;;;;;;20.54;57.17;99765.80;1594226;87;22144;-55
2023/04/27 14:06:04;;;;;;;6.28;4.10;;;;;;;20.75;57.23;99749.70;1607706;88;21658;-57
2023/04/27 14:09:10;;;;;;;7.08;4.10;;;;;;;21.20;57.16;99745.28;1609963;86;21852;-55
2023/04/27 14:12:16;;;;;;;8.20;3.60;;;;;;;21.67;56.97;99739.42;1608852;86;21304;-55
2023/04/27 14:15:22;;;;;;;5.95;4.30;;;;;;;21.93;56.64;99729.36;1602164;89;21248;-55
2023/04/27 14:18:28;;;;;;;9.03;5.05;;;;;;;22.08;56.33;99729.52;1601649;87;21792;-58
2023/04/27 14:21:34;;;;;;;6.85;4.85;;;;;;;21.97;56.09;99732.78;1591815;89;21277;-58
2023/04/27 14:24:40;;;;;;;7.25;5.10;;;;;;;21.99;56.19;99743.66;1604915;89;21251;-57
2023/04/27 14:27:47;;;;;;;9.23;4.80;;;;;;;21.89;56.10;99754.70;1583747;89;22110;-58
2023/04/27 14:30:53;;;;;;;7.72;4.75;;;;;;;21.70;56.29;99761.73;1608160;88;21244;-56
2023/04/27 14:34:00;;;;;;;9.90;4.53;;;;;;;21.91;56.46;99768.66;1625141;87;21292;-58
2023/04/27 14:37:06;;;;;;;14.68;10.10;;;;;;;22.06;56.45;99770.20;1609208;86;21269;-57